Time;durP1;ratioP1;P1;durP2;ratioP2;P2;SDS_P1;SDS_P2;PMS_P1;PMS_P2;Temp;Humidity;BMP_temperature;BMP_pressure;BME280_temperature;BME280_humidity;BME280_pressure;Samples;Min_cycle;Max_cycle;Signal;HPM_P1;HPM_P2
2023/04/13 00:00:10;;;;;;;1.07;0.50;;;14.50;99.90;;;;;;4995272;28;20242;-91
2023/04/13 00:02:41;;;;;;;1.13;0.73;;;14.40;99.90;;;;;;4994946;28;20249;-91
2023/04/13 00:05:13;;;;;;;1.10;0.50;;;14.60;99.90;;;;;;4985637;28;20213;-90
2023/04/13 00:07:45;;;;;;;0.70;0.50;;;14.60;99.90;;;;;;4994198;28;20957;-90
2023/04/13 00:10:17;;;;;;;1.27;0.63;;;14.50;99.90;;;;;;4987476;28;20649;-90
2023/04/13 00:12:49;;;;;;;1.27;0.50;;;14.60;99.90;;;;;;4985486;28;20246;-92
2023/04/13 00:15:23;;;;;;;1.03;0.63;;;14.60;99.90;;;;;;4992868;28;20210;-92
2023/04/13 00:17:55;;;;;;;0.73;0.47;;;14.60;99.90;;;;;;4994130;28;20218;-91
2023/04/13 00:20:26;;;;;;;1.07;0.60;;;14.60;99.90;;;;;;4995331;28;20206;-91
2023/04/13 00:22:57;;;;;;;1.30;0.60;;;14.70;99.90;;;;;;4995329;28;20238;-92
2023/04/13 00:25:30;;;;;;;0.97;0.50;;;14.70;99.90;;;;;;4977812;28;20214;-91
2023/04/13 00:28:05;;;;;;;1.03;0.50;;;14.60;99.90;;;;;;4984133;28;20242;-91
2023/04/13 00:30:38;;;;;;;2.37;0.60;;;14.70;99.90;;;;;;4990922;28;20201;-91
2023/04/13 00:33:11;;;;;;;0.60;0.40;;;14.60;99.90;;;;;;4995827;28;20225;-92
2023/04/13 00:35:44;;;;;;;0.83;0.50;;;14.50;99.90;;;;;;4994867;28;20206;-89
2023/04/13 00:38:17;;;;;;;1.53;0.70;;;14.20;99.90;;;;;;4995940;28;20210;-91
2023/04/13 00:40:52;;;;;;;1.27;0.70;;;14.00;99.90;;;;;;4976486;28;20226;-92
2023/04/13 00:43:24;;;;;;;1.77;0.50;;;13.90;99.90;;;;;;4976343;28;20230;-91
2023/04/13 00:45:58;;;;;;;0.80;0.50;;;13.70;99.90;;;;;;4991431;28;20210;-92
2023/04/13 00:48:30;;;;;;;2.33;0.60;;;13.40;99.90;;;;;;4978353;28;20209;-92
2023/04/13 00:51:02;;;;;;;1.63;0.57;;;13.50;99.90;;;;;;4998873;28;20206;-92
2023/04/13 00:53:34;;;;;;;2.47;0.60;;;13.60;99.90;;;;;;4995274;28;20210;-92
2023/04/13 00:56:06;;;;;;;1.77;0.90;;;13.60;99.90;;;;;;4991582;28;20377;-91
2023/04/13 00:58:39;;;;;;;2.00;0.60;;;13.90;99.90;;;;;;5008692;28;20206;-92
2023/04/13 01:01:13;;;;;;;4.33;0.63;;;13.90;99.90;;;;;;5030034;28;20190;-91
2023/04/13 01:03:47;;;;;;;2.03;0.60;;;14.00;99.90;;;;;;5002844;28;20233;-90
2023/04/13 01:06:26;;;;;;;0.93;0.50;;;14.00;99.90;;;;;;4995626;28;20225;-92
2023/04/13 01:09:03;;;;;;;1.00;0.50;;;13.80;99.90;;;;;;4994542;28;20651;-91
2023/04/13 01:11:40;;;;;;;1.77;0.60;;;13.60;99.90;;;;;;4995025;28;20214;-90
2023/04/13 01:14:16;;;;;;;1.23;0.60;;;13.40;99.90;;;;;;4990390;28;20226;-91
2023/04/13 01:16:56;;;;;;;1.60;0.70;;;13.70;99.90;;;;;;4991721;28;20210;-91
2023/04/13 01:19:48;;;;;;;1.53;0.73;;;13.60;99.90;;;;;;4980394;28;20310;-92
2023/04/13 01:22:23;;;;;;;0.67;0.60;;;13.50;99.90;;;;;;4985117;28;20352;-88
2023/04/13 01:25:16;;;;;;;3.13;0.70;;;13.60;99.90;;;;;;4989022;28;20210;-87
2023/04/13 01:27:54;;;;;;;1.13;0.60;;;13.90;99.90;;;;;;4995219;28;20261;-88
2023/04/13 01:30:27;;;;;;;0.73;0.60;;;14.10;99.90;;;;;;5013564;28;20214;-93
2023/04/13 01:33:00;;;;;;;0.90;0.80;;;13.70;99.90;;;;;;5020324;28;20197;-95
2023/04/13 01:35:33;;;;;;;2.00;0.87;;;13.60;99.90;;;;;;5010920;28;20199;-95
2023/04/13 01:38:07;;;;;;;1.20;0.70;;;13.50;99.90;;;;;;5005843;28;20263;-95
2023/04/13 01:40:40;;;;;;;1.80;0.60;;;12.80;99.90;;;;;;5013268;28;20197;-94
2023/04/13 01:43:14;;;;;;;1.43;0.60;;;12.60;99.90;;;;;;5009649;28;20227;-94
2023/04/13 01:45:50;;;;;;;1.20;0.77;;;12.40;99.90;;;;;;4997013;28;20230;-94
2023/04/13 01:48:34;;;;;;;1.93;1.00;;;12.30;99.90;;;;;;5002232;28;20693;-96
2023/04/13 01:51:09;;;;;;;1.03;0.60;;;12.30;99.90;;;;;;4991385;28;20222;-93
2023/04/13 01:53:47;;;;;;;0.80;0.60;;;12.20;99.90;;;;;;4992847;28;20210;-96
2023/04/13 01:56:25;;;;;;;0.73;0.57;;;12.00;99.90;;;;;;4990220;28;20346;-96
2023/04/13 01:58:59;;;;;;;1.40;0.53;;;11.70;99.90;;;;;;5001113;28;20240;-96
2023/04/13 02:01:32;;;;;;;0.50;0.40;;;11.50;99.90;;;;;;5017251;28;20205;-96
2023/04/13 02:04:06;;;;;;;0.90;0.40;;;11.20;99.90;;;;;;5012526;28;20330;-96
2023/04/13 02:06:38;;;;;;;1.20;0.60;;;10.70;99.90;;;;;;4999599;28;20214;-96
2023/04/13 02:09:11;;;;;;;1.07;0.60;;;10.50;99.90;;;;;;5005652;28;20217;-93
2023/04/13 02:11:43;;;;;;;1.27;0.70;;;10.50;99.90;;;;;;5000170;28;20206;-93
2023/04/13 02:14:17;;;;;;;0.97;0.70;;;10.30;99.90;;;;;;4995359;28;20261;-94
2023/04/13 02:16:49;;;;;;;2.10;0.50;;;10.30;99.90;;;;;;4998313;28;20215;-93
2023/04/13 02:19:21;;;;;;;0.90;0.70;;;10.30;99.90;;;;;;4995823;28;20217;-86
2023/04/13 02:21:52;;;;;;;3.60;0.80;;;10.20;99.90;;;;;;4992934;28;20230;-85
2023/04/13 02:24:24;;;;;;;2.20;0.50;;;10.20;99.90;;;;;;4991713;28;20235;-87
2023/04/13 02:26:55;;;;;;;1.57;0.67;;;10.10;99.90;;;;;;4995841;28;20616;-86
2023/04/13 02:29:28;;;;;;;1.73;0.50;;;9.90;99.90;;;;;;4994705;28;20568;-86
2023/04/13 02:31:59;;;;;;;1.40;0.60;;;9.80;99.90;;;;;;4995770;28;20295;-86
2023/04/13 02:34:30;;;;;;;1.17;0.60;;;9.80;99.90;;;;;;5002288;28;20286;-87
2023/04/13 02:37:01;;;;;;;0.70;0.60;;;9.70;99.90;;;;;;4991894;28;20210;-88
2023/04/13 02:39:32;;;;;;;4.87;0.90;;;9.70;99.90;;;;;;4985922;28;20207;-86
2023/04/13 02:42:04;;;;;;;0.93;0.70;;;9.70;99.90;;;;;;4982031;28;20215;-86
2023/04/13 02:44:38;;;;;;;1.60;0.63;;;9.60;99.90;;;;;;4993733;28;20226;-86
2023/04/13 02:47:09;;;;;;;2.20;0.60;;;9.60;99.90;;;;;;4980771;28;20532;-87
2023/04/13 02:49:41;;;;;;;2.47;0.50;;;9.40;99.90;;;;;;5004887;28;20253;-87
2023/04/13 02:52:12;;;;;;;1.63;0.70;;;9.40;99.90;;;;;;5024015;28;20191;-88
2023/04/13 02:54:45;;;;;;;2.00;0.60;;;9.20;99.90;;;;;;5003492;28;20237;-86
2023/04/13 02:57:17;;;;;;;0.73;0.60;;;9.00;99.90;;;;;;4996324;28;20233;-88
2023/04/13 02:59:51;;;;;;;2.20;0.50;;;8.90;99.90;;;;;;4995389;28;20207;-86
2023/04/13 03:02:25;;;;;;;0.60;0.50;;;8.80;99.90;;;;;;4986944;28;20206;-88
2023/04/13 03:04:58;;;;;;;2.03;0.53;;;8.70;99.90;;;;;;4989455;28;20329;-87
2023/04/13 03:07:31;;;;;;;3.57;0.77;;;8.60;99.90;;;;;;4981810;28;20218;-84
2023/04/13 03:10:04;;;;;;;1.90;1.10;;;8.50;99.90;;;;;;4994293;28;20218;-86
2023/04/13 03:12:35;;;;;;;0.87;0.63;;;8.40;99.90;;;;;;5002460;28;20215;-87
2023/04/13 03:15:10;;;;;;;1.17;0.50;;;8.30;99.90;;;;;;4995410;28;20221;-85
2023/04/13 03:17:42;;;;;;;1.13;0.70;;;8.30;99.90;;;;;;4985806;28;20203;-85
2023/04/13 03:20:19;;;;;;;1.07;0.60;;;8.20;99.90;;;;;;4991152;28;20209;-85
2023/04/13 03:22:50;;;;;;;2.30;0.77;;;8.10;99.90;;;;;;4992531;28;20218;-86
2023/04/13 03:25:21;;;;;;;0.50;0.50;;;8.00;99.90;;;;;;5000999;28;20230;-86
2023/04/13 03:27:53;;;;;;;1.47;0.70;;;7.90;99.90;;;;;;4992341;28;20214;-86
2023/04/13 03:30:26;;;;;;;0.90;0.50;;;7.90;99.90;;;;;;4986926;28;20731;-86
2023/04/13 03:32:57;;;;;;;2.00;0.40;;;7.80;99.90;;;;;;4987617;28;20252;-86
2023/04/13 03:35:28;;;;;;;0.50;0.50;;;7.90;99.90;;;;;;4984238;28;20277;-84
2023/04/13 03:38:00;;;;;;;0.70;0.50;;;7.80;99.90;;;;;;4998649;28;20238;-87
2023/04/13 03:40:32;;;;;;;1.60;0.70;;;7.80;99.90;;;;;;4982145;28;20194;-86
2023/04/13 03:43:04;;;;;;;1.03;0.50;;;7.80;99.90;;;;;;4973312;28;20206;-86
2023/04/13 03:45:38;;;;;;;0.50;0.40;;;7.90;99.90;;;;;;4980415;28;20257;-86
2023/04/13 03:48:09;;;;;;;0.50;0.50;;;7.90;99.90;;;;;;4976043;28;20237;-87
2023/04/13 03:50:40;;;;;;;0.40;0.40;;;7.90;99.90;;;;;;4991680;28;20222;-86
2023/04/13 03:53:13;;;;;;;0.90;0.40;;;7.90;99.90;;;;;;4993185;28;20207;-86
2023/04/13 03:55:45;;;;;;;0.53;0.53;;;7.90;99.90;;;;;;4979852;28;20918;-86
2023/04/13 03:58:16;;;;;;;1.37;0.53;;;7.90;99.90;;;;;;4980617;28;20214;-86
2023/04/13 04:00:49;;;;;;;1.03;0.53;;;8.00;99.90;;;;;;4974589;28;20292;-86
2023/04/13 04:03:21;;;;;;;1.00;0.50;;;7.90;99.90;;;;;;4977754;28;20246;-86
2023/04/13 04:05:52;;;;;;;0.70;0.70;;;7.90;99.90;;;;;;4985680;28;20210;-85
2023/04/13 04:08:24;;;;;;;0.43;0.43;;;7.90;99.90;;;;;;4982758;28;20561;-86
2023/04/13 04:10:56;;;;;;;1.00;0.60;;;7.90;99.90;;;;;;4987775;28;20226;-85
2023/04/13 04:13:27;;;;;;;1.07;0.50;;;7.80;99.90;;;;;;5006685;28;20214;-86
2023/04/13 04:15:59;;;;;;;0.70;0.50;;;7.70;99.90;;;;;;4986254;28;20203;-86
2023/04/13 04:18:32;;;;;;;1.67;0.90;;;7.60;99.90;;;;;;4990199;28;20209;-85
2023/04/13 04:21:05;;;;;;;1.10;0.70;;;7.50;99.90;;;;;;4987595;28;20238;-86
2023/04/13 04:23:38;;;;;;;1.87;0.63;;;7.50;99.90;;;;;;4991497;28;20216;-86
2023/04/13 04:26:12;;;;;;;0.80;0.60;;;7.40;99.90;;;;;;4987961;28;20260;-86
2023/04/13 04:28:44;;;;;;;1.20;0.50;;;7.30;99.90;;;;;;4980675;28;20233;-85
2023/04/13 04:31:17;;;;;;;1.77;0.80;;;7.20;99.90;;;;;;4976845;28;20238;-85
2023/04/13 04:33:50;;;;;;;1.90;1.10;;;7.10;99.90;;;;;;4980449;28;20563;-86
2023/04/13 04:36:23;;;;;;;1.90;1.20;;;7.00;99.90;;;;;;4991857;28;20645;-87
2023/04/13 04:39:00;;;;;;;2.77;1.33;;;6.90;99.90;;;;;;4977345;28;20274;-86
2023/04/13 04:41:32;;;;;;;2.77;1.50;;;6.80;99.90;;;;;;5006707;28;20290;-86
2023/04/13 04:44:03;;;;;;;3.43;1.73;;;6.70;99.90;;;;;;5024806;28;20233;-87
2023/04/13 04:46:37;;;;;;;3.80;1.77;;;6.70;99.90;;;;;;4977797;28;20293;-86
2023/04/13 04:49:09;;;;;;;3.40;1.60;;;6.60;99.90;;;;;;4975830;28;20230;-87
2023/04/13 04:51:40;;;;;;;1.93;1.50;;;6.50;99.90;;;;;;4974186;28;20215;-86
2023/04/13 04:54:11;;;;;;;1.57;1.30;;;6.50;99.90;;;;;;4990592;28;20209;-86
2023/04/13 04:56:43;;;;;;;2.30;1.43;;;6.40;99.90;;;;;;4994638;28;20206;-86
2023/04/13 04:59:14;;;;;;;1.50;1.40;;;6.40;99.90;;;;;;5006481;28;20667;-87
2023/04/13 05:01:48;;;;;;;3.30;1.50;;;6.30;99.90;;;;;;5008532;28;20614;-86
2023/04/13 05:04:20;;;;;;;2.40;1.50;;;6.30;99.90;;;;;;4982733;28;20222;-87
2023/04/13 05:06:51;;;;;;;2.57;1.10;;;6.30;99.90;;;;;;4992243;28;20218;-86
2023/04/13 05:09:22;;;;;;;2.00;1.20;;;6.30;99.90;;;;;;4992593;28;20210;-87
2023/04/13 05:11:53;;;;;;;1.77;1.00;;;6.20;99.90;;;;;;5005542;28;20253;-83
2023/04/13 05:14:25;;;;;;;2.13;1.00;;;6.10;99.90;;;;;;5018039;28;20206;-86
2023/04/13 05:16:58;;;;;;;1.33;0.70;;;6.10;99.90;;;;;;5006288;28;20193;-85
2023/04/13 05:19:30;;;;;;;3.17;1.20;;;6.00;99.90;;;;;;4992367;28;20585;-85
2023/04/13 05:22:01;;;;;;;2.57;0.80;;;6.00;99.90;;;;;;4993180;28;20210;-85
2023/04/13 05:24:34;;;;;;;3.30;0.90;;;6.00;99.90;;;;;;4993741;28;20234;-86
2023/04/13 05:27:08;;;;;;;1.10;0.90;;;6.00;99.90;;;;;;5001809;28;20233;-85
2023/04/13 05:29:39;;;;;;;0.90;0.60;;;5.90;99.90;;;;;;5001318;28;20569;-85
2023/04/13 05:32:13;;;;;;;1.70;0.90;;;5.80;99.90;;;;;;5005318;28;20213;-85
2023/04/13 05:34:44;;;;;;;2.17;1.00;;;5.70;99.90;;;;;;5001321;28;20211;-86
2023/04/13 05:37:16;;;;;;;2.57;0.90;;;5.70;99.90;;;;;;4982667;28;20262;-86
2023/04/13 05:39:48;;;;;;;1.93;0.87;;;5.60;99.90;;;;;;4976599;28;20227;-87
2023/04/13 05:42:19;;;;;;;1.30;0.80;;;5.60;99.90;;;;;;5021134;28;20270;-85
2023/04/13 05:44:50;;;;;;;1.70;0.80;;;5.50;99.90;;;;;;5018979;28;20241;-85
2023/04/13 05:47:26;;;;;;;1.13;0.80;;;5.60;99.90;;;;;;5016386;28;20233;-85
2023/04/13 05:49:57;;;;;;;1.47;0.80;;;5.60;99.90;;;;;;5003159;28;20205;-85
2023/04/13 05:52:29;;;;;;;2.30;1.00;;;5.50;99.90;;;;;;4995944;28;20269;-85
2023/04/13 05:55:00;;;;;;;0.97;0.83;;;5.50;99.90;;;;;;4997339;28;20206;-86
2023/04/13 05:57:31;;;;;;;1.20;0.70;;;5.40;99.90;;;;;;4995894;28;20215;-86
2023/04/13 06:00:03;;;;;;;2.43;0.93;;;5.40;99.90;;;;;;4996470;28;20210;-86
2023/04/13 06:02:39;;;;;;;0.90;0.80;;;5.40;99.90;;;;;;4997078;28;20222;-85
2023/04/13 06:05:12;;;;;;;1.73;0.67;;;5.50;99.90;;;;;;4996503;28;20237;-85
2023/04/13 06:07:45;;;;;;;2.20;0.90;;;5.40;99.90;;;;;;4981375;28;20883;-85
2023/04/13 06:10:16;;;;;;;3.00;1.10;;;5.40;99.90;;;;;;4977243;28;20211;-86
2023/04/13 06:12:49;;;;;;;1.57;0.80;;;5.40;99.90;;;;;;4977428;28;20215;-85
2023/04/13 06:15:21;;;;;;;2.53;0.97;;;5.40;99.90;;;;;;4976754;28;20726;-89
2023/04/13 06:17:55;;;;;;;2.17;1.10;;;5.40;99.90;;;;;;4976528;28;20219;-86
2023/04/13 06:20:26;;;;;;;1.73;1.03;;;5.30;99.90;;;;;;4977066;28;20207;-86
2023/04/13 06:22:58;;;;;;;2.30;1.00;;;5.40;99.90;;;;;;4980630;28;20202;-85
2023/04/13 06:25:30;;;;;;;1.40;1.00;;;5.40;99.90;;;;;;4995788;28;20930;-86
2023/04/13 06:28:03;;;;;;;2.53;1.10;;;5.40;99.90;;;;;;4987016;28;20218;-85
2023/04/13 06:30:36;;;;;;;2.00;1.10;;;5.30;99.90;;;;;;4992090;28;20253;-84
2023/04/13 06:33:10;;;;;;;2.17;1.33;;;5.30;99.90;;;;;;5000336;28;20201;-86
2023/04/13 06:35:41;;;;;;;2.70;1.20;;;5.30;99.90;;;;;;5009456;28;20668;-84
2023/04/13 06:38:12;;;;;;;3.33;0.97;;;5.30;99.90;;;;;;4991603;28;20631;-86
2023/04/13 06:40:44;;;;;;;2.00;0.93;;;5.50;99.90;;;;;;4996350;28;20214;-86
2023/04/13 06:43:16;;;;;;;1.50;1.00;;;5.50;99.90;;;;;;4996436;28;20210;-86
2023/04/13 06:46:02;;;;;;;1.77;1.00;;;5.50;99.90;;;;;;4995989;28;20230;-86
2023/04/13 06:48:35;;;;;;;2.30;1.13;;;5.50;99.90;;;;;;4995409;28;20206;-85
2023/04/13 06:51:07;;;;;;;3.33;0.90;;;5.40;99.90;;;;;;5004384;28;20256;-85
2023/04/13 06:53:39;;;;;;;1.60;0.90;;;5.40;99.90;;;;;;4991394;28;20289;-86
2023/04/13 06:56:10;;;;;;;1.13;0.77;;;5.40;99.90;;;;;;4995820;28;20268;-86
2023/04/13 06:58:42;;;;;;;1.67;0.90;;;5.40;99.90;;;;;;5011848;28;20566;-85
2023/04/13 07:01:13;;;;;;;3.17;1.00;;;5.40;99.90;;;;;;5000283;28;20233;-86
2023/04/13 07:03:47;;;;;;;2.33;0.70;;;5.40;99.90;;;;;;4995704;28;20210;-86
2023/04/13 07:06:18;;;;;;;0.87;0.70;;;5.40;99.90;;;;;;4975696;28;20238;-86
2023/04/13 07:08:50;;;;;;;1.00;0.67;;;5.30;99.90;;;;;;4990022;28;20198;-87
2023/04/13 07:11:22;;;;;;;2.10;0.80;;;5.20;99.90;;;;;;4995427;28;20198;-85
2023/04/13 07:13:53;;;;;;;1.03;0.90;;;5.20;99.90;;;;;;4995741;28;20213;-86
2023/04/13 07:16:27;;;;;;;1.50;0.80;;;5.10;99.90;;;;;;4995491;28;20721;-86
2023/04/13 07:19:00;;;;;;;2.53;1.00;;;5.10;99.90;;;;;;4990719;28;20760;-85
2023/04/13 07:21:32;;;;;;;1.10;1.00;;;5.10;99.90;;;;;;4999456;28;20617;-85
2023/04/13 07:24:04;;;;;;;1.27;0.90;;;5.00;99.90;;;;;;5015457;28;20645;-86
2023/04/13 07:26:36;;;;;;;4.23;1.23;;;5.00;99.90;;;;;;5010324;28;20230;-86
2023/04/13 07:29:12;;;;;;;2.07;1.20;;;5.00;99.90;;;;;;4998367;28;20547;-85
2023/04/13 07:31:44;;;;;;;1.30;0.80;;;5.00;99.90;;;;;;4995738;28;20275;-86
2023/04/13 07:34:20;;;;;;;2.73;1.10;;;5.00;99.90;;;;;;4994950;28;20301;-86
2023/04/13 07:36:51;;;;;;;1.73;0.80;;;5.00;99.90;;;;;;4993846;28;20265;-85
2023/04/13 07:39:22;;;;;;;1.60;0.80;;;5.10;99.90;;;;;;4982889;28;20218;-85
2023/04/13 07:41:55;;;;;;;2.13;0.80;;;5.10;99.90;;;;;;4988254;28;20225;-85
2023/04/13 07:44:26;;;;;;;4.47;1.07;;;5.10;99.90;;;;;;5004967;28;20198;-85
2023/04/13 07:46:57;;;;;;;4.33;1.20;;;5.10;99.90;;;;;;5014203;28;20235;-86
2023/04/13 07:49:31;;;;;;;3.17;1.57;;;5.10;99.90;;;;;;5011586;28;20226;-85
2023/04/13 07:52:02;;;;;;;3.47;2.43;;;4.90;99.90;;;;;;5001773;28;20229;-85
2023/04/13 07:54:35;;;;;;;5.13;3.27;;;4.90;99.90;;;;;;4999154;28;20241;-85
2023/04/13 07:57:10;;;;;;;5.00;3.00;;;4.80;99.90;;;;;;5000199;28;20210;-85
2023/04/13 07:59:42;;;;;;;4.50;3.03;;;4.60;99.90;;;;;;5007921;28;20342;-86
2023/04/13 08:02:15;;;;;;;5.57;2.60;;;4.60;99.90;;;;;;5016144;28;20209;-86
2023/04/13 08:04:48;;;;;;;4.47;1.90;;;4.60;99.90;;;;;;5015939;28;20205;-86
2023/04/13 08:07:20;;;;;;;3.77;1.70;;;4.60;99.90;;;;;;5014319;28;20245;-86
2023/04/13 08:09:52;;;;;;;3.43;1.63;;;4.60;99.90;;;;;;4994831;28;20936;-86
2023/04/13 08:12:24;;;;;;;2.83;2.00;;;4.50;99.90;;;;;;5012231;28;20256;-86
2023/04/13 08:14:56;;;;;;;2.53;2.00;;;4.50;99.90;;;;;;5003618;28;20267;-86
2023/04/13 08:17:28;;;;;;;2.47;2.00;;;4.50;99.90;;;;;;4991498;28;20207;-85
2023/04/13 08:20:02;;;;;;;3.07;2.27;;;4.40;99.90;;;;;;4999743;28;20265;-86
2023/04/13 08:22:35;;;;;;;2.17;1.60;;;4.40;99.90;;;;;;5010137;28;20211;-85
2023/04/13 08:25:09;;;;;;;3.83;1.63;;;4.40;99.90;;;;;;4986962;28;20207;-86
2023/04/13 08:27:40;;;;;;;2.53;1.60;;;4.40;99.90;;;;;;4975561;28;20246;-85
2023/04/13 08:30:13;;;;;;;2.27;1.53;;;4.40;99.90;;;;;;4986646;28;20202;-86
2023/04/13 08:32:44;;;;;;;1.93;1.30;;;4.30;99.90;;;;;;4994408;28;20261;-86
2023/04/13 08:35:18;;;;;;;4.13;1.57;;;4.20;99.90;;;;;;4990296;28;20221;-85
2023/04/13 08:37:49;;;;;;;2.13;1.10;;;4.20;99.90;;;;;;4993370;28;20209;-85
2023/04/13 08:40:21;;;;;;;2.37;1.20;;;4.20;99.90;;;;;;4994869;28;20213;-85
2023/04/13 08:42:55;;;;;;;2.13;1.10;;;4.20;99.90;;;;;;4993892;28;20202;-86
2023/04/13 08:45:29;;;;;;;1.87;1.33;;;4.20;99.90;;;;;;4993347;28;20202;-86
2023/04/13 08:48:02;;;;;;;1.63;1.13;;;4.20;99.90;;;;;;4994531;28;20233;-86
2023/04/13 08:50:38;;;;;;;1.83;1.47;;;4.20;99.90;;;;;;4997941;28;20739;-86
2023/04/13 08:53:09;;;;;;;2.67;1.23;;;4.30;99.90;;;;;;4997278;28;20198;-87
2023/04/13 08:55:45;;;;;;;2.50;1.13;;;4.40;99.90;;;;;;4999038;28;20636;-86
2023/04/13 08:58:20;;;;;;;3.27;1.20;;;4.40;99.90;;;;;;4995606;28;20209;-87
2023/04/13 09:00:52;;;;;;;2.50;1.30;;;4.50;99.90;;;;;;5013329;28;20217;-85
2023/04/13 09:03:27;;;;;;;3.07;1.10;;;4.50;99.90;;;;;;5010176;28;20612;-86
2023/04/13 09:06:05;;;;;;;3.13;1.00;;;4.60;99.90;;;;;;5001332;28;20237;-86
2023/04/13 09:08:39;;;;;;;1.90;1.10;;;4.60;99.90;;;;;;4993930;28;20576;-85
2023/04/13 09:11:11;;;;;;;2.17;1.17;;;4.70;99.90;;;;;;4992301;28;20217;-86
2023/04/13 09:13:51;;;;;;;2.20;1.10;;;4.70;99.90;;;;;;4997439;28;20216;-86
2023/04/13 09:16:23;;;;;;;5.20;1.10;;;4.70;99.90;;;;;;4995958;28;20561;-85
2023/04/13 09:18:55;;;;;;;1.77;1.20;;;4.70;99.90;;;;;;4996413;28;20218;-84
2023/04/13 09:21:41;;;;;;;2.20;1.03;;;4.80;99.90;;;;;;4997912;28;20333;-85
2023/04/13 09:24:14;;;;;;;1.13;0.90;;;4.70;99.90;;;;;;4996872;28;20210;-84
2023/04/13 09:26:47;;;;;;;1.87;0.80;;;4.70;99.90;;;;;;4996574;28;20256;-85
2023/04/13 09:29:20;;;;;;;2.67;1.20;;;4.70;99.90;;;;;;5006631;28;20218;-86
2023/04/13 09:31:52;;;;;;;3.97;1.10;;;4.70;99.90;;;;;;5006943;28;20215;-86
2023/04/13 09:34:29;;;;;;;2.23;1.13;;;4.80;99.90;;;;;;5003788;28;20244;-85
2023/04/13 09:37:17;;;;;;;4.03;1.20;;;4.80;99.90;;;;;;4990513;28;20269;-85
2023/04/13 09:39:49;;;;;;;3.13;1.20;;;4.90;99.90;;;;;;4989163;28;20203;-85
2023/04/13 09:42:21;;;;;;;2.00;1.20;;;4.90;99.90;;;;;;4977610;28;20218;-85
2023/04/13 09:44:58;;;;;;;2.77;1.00;;;5.00;99.90;;;;;;4984043;28;20209;-86
2023/04/13 09:47:39;;;;;;;2.37;1.10;;;5.10;99.90;;;;;;4995864;28;20241;-83
2023/04/13 09:50:22;;;;;;;5.67;1.00;;;5.20;99.90;;;;;;4995922;28;20556;-85
2023/04/13 09:53:09;;;;;;;1.93;0.93;;;5.20;99.90;;;;;;5012418;28;20202;-86
2023/04/13 09:55:43;;;;;;;3.10;1.13;;;5.20;99.90;;;;;;4997576;28;20236;-86
2023/04/13 09:58:16;;;;;;;1.90;1.00;;;5.30;99.90;;;;;;5005024;28;20210;-86
2023/04/13 10:00:49;;;;;;;4.77;1.37;;;5.30;99.90;;;;;;4996757;28;20276;-85
2023/04/13 10:03:22;;;;;;;3.57;1.40;;;5.20;99.90;;;;;;5015745;28;20205;-86
2023/04/13 10:05:56;;;;;;;2.00;1.17;;;5.20;99.90;;;;;;5011548;28;20203;-85
2023/04/13 10:08:32;;;;;;;4.10;0.97;;;5.30;99.90;;;;;;4995764;28;20229;-86
2023/04/13 10:11:13;;;;;;;4.03;1.30;;;5.30;99.90;;;;;;4978872;28;20524;-87
2023/04/13 10:13:53;;;;;;;1.10;1.00;;;5.30;99.90;;;;;;4994075;28;20268;-85
2023/04/13 10:16:50;;;;;;;3.00;1.23;;;5.40;99.90;;;;;;5002457;28;20266;-86
2023/04/13 10:19:24;;;;;;;3.73;1.07;;;5.30;99.90;;;;;;5006454;28;20249;-87
2023/04/13 10:21:58;;;;;;;4.60;1.17;;;5.20;99.90;;;;;;4999247;28;20214;-86
2023/04/13 10:24:33;;;;;;;1.80;0.90;;;5.30;99.90;;;;;;4985875;28;20237;-87
2023/04/13 10:27:15;;;;;;;2.80;1.10;;;5.20;99.90;;;;;;4996298;28;20324;-86
2023/04/13 10:29:48;;;;;;;2.97;1.20;;;5.20;99.90;;;;;;4985222;28;20306;-85
2023/04/13 10:32:24;;;;;;;2.93;1.30;;;5.20;99.90;;;;;;4977250;28;20219;-86
2023/04/13 10:34:57;;;;;;;3.57;1.17;;;5.20;99.90;;;;;;4976459;28;20210;-85
2023/04/13 10:37:32;;;;;;;4.97;1.30;;;5.20;99.90;;;;;;4975646;28;20639;-86
2023/04/13 10:40:07;;;;;;;5.57;1.40;;;5.20;99.90;;;;;;4976691;28;20269;-86
2023/04/13 10:42:46;;;;;;;2.07;0.90;;;5.20;99.90;;;;;;4976498;28;20213;-84
2023/04/13 10:45:22;;;;;;;4.00;1.43;;;5.20;99.90;;;;;;4976417;28;20672;-85
2023/04/13 10:47:57;;;;;;;3.90;1.20;;;5.20;99.90;;;;;;4975436;28;20226;-84
2023/04/13 10:50:28;;;;;;;4.00;1.00;;;5.30;99.90;;;;;;4978570;28;20289;-86
2023/04/13 10:53:03;;;;;;;3.33;1.10;;;5.30;99.90;;;;;;4995592;28;20701;-86
2023/04/13 10:55:38;;;;;;;3.10;1.07;;;5.20;99.90;;;;;;4993522;28;20683;-85
2023/04/13 10:58:17;;;;;;;3.30;1.20;;;5.30;99.90;;;;;;4978373;28;20219;-84
2023/04/13 11:00:51;;;;;;;1.90;0.63;;;5.30;99.90;;;;;;4977021;28;20646;-85
2023/04/13 11:03:23;;;;;;;3.07;1.00;;;5.40;99.90;;;;;;4995938;28;20207;-85
2023/04/13 11:05:58;;;;;;;2.60;1.00;;;5.40;99.90;;;;;;4995183;28;20213;-85
2023/04/13 11:08:31;;;;;;;3.27;1.20;;;5.40;99.90;;;;;;5010809;28;20228;-85
2023/04/13 11:11:06;;;;;;;1.83;1.00;;;5.40;99.90;;;;;;4991984;28;20210;-85
2023/04/13 11:13:48;;;;;;;3.63;1.07;;;5.30;99.90;;;;;;4995210;28;20203;-87
2023/04/13 11:16:19;;;;;;;3.73;1.20;;;5.20;99.90;;;;;;4986180;28;20573;-87
2023/04/13 11:19:01;;;;;;;3.70;1.07;;;5.20;99.90;;;;;;4998877;28;20257;-86
2023/04/13 11:21:34;;;;;;;5.07;1.00;;;5.20;99.90;;;;;;4995217;28;20698;-87
2023/04/13 11:24:05;;;;;;;6.80;1.10;;;5.20;99.90;;;;;;4976367;28;20214;-86
2023/04/13 11:26:40;;;;;;;2.43;0.90;;;5.20;99.90;;;;;;4995349;28;20241;-86
2023/04/13 11:29:19;;;;;;;3.57;0.93;;;5.20;99.90;;;;;;4994399;28;20229;-86
2023/04/13 11:31:51;;;;;;;2.03;1.00;;;5.20;99.90;;;;;;4995004;28;20207;-86
2023/04/13 11:34:27;;;;;;;1.83;1.00;;;5.20;99.90;;;;;;4995927;28;20660;-85
2023/04/13 11:37:04;;;;;;;4.57;1.30;;;5.30;99.90;;;;;;4993955;28;20284;-85
2023/04/13 11:39:38;;;;;;;3.83;1.33;;;5.30;99.90;;;;;;5002048;28;20205;-86
2023/04/13 11:42:12;;;;;;;2.80;1.10;;;5.30;99.90;;;;;;4975544;28;20215;-86
2023/04/13 11:44:45;;;;;;;4.30;1.03;;;5.20;99.90;;;;;;4988102;28;20199;-84
2023/04/13 11:47:20;;;;;;;5.30;1.10;;;5.30;99.90;;;;;;4979497;28;20249;-85
2023/04/13 11:49:52;;;;;;;2.20;0.77;;;5.30;99.90;;;;;;4972591;28;20612;-85
2023/04/13 11:52:24;;;;;;;4.00;1.00;;;5.40;99.90;;;;;;4997759;28;20236;-85
2023/04/13 11:54:56;;;;;;;5.30;1.03;;;5.30;99.90;;;;;;4994538;28;20257;-85
2023/04/13 11:57:39;;;;;;;4.20;0.93;;;5.40;99.90;;;;;;4989570;28;20238;-86
2023/04/13 12:00:17;;;;;;;1.70;0.80;;;5.30;99.90;;;;;;4989771;28;20206;-84
2023/04/13 12:02:50;;;;;;;3.83;0.90;;;5.30;99.90;;;;;;4995214;28;20286;-85
2023/04/13 12:05:32;;;;;;;6.60;1.17;;;5.20;99.90;;;;;;5000855;28;20205;-85
2023/04/13 12:08:03;;;;;;;1.97;0.90;;;5.40;99.90;;;;;;5009059;28;20233;-85
2023/04/13 12:10:37;;;;;;;4.77;1.30;;;5.40;99.90;;;;;;4999890;28;20214;-85
2023/04/13 12:13:23;;;;;;;3.87;1.00;;;5.40;99.90;;;;;;5001853;28;20276;-83
2023/04/13 12:16:05;;;;;;;2.00;0.70;;;5.40;99.90;;;;;;4994685;28;20210;-85
2023/04/13 12:18:47;;;;;;;2.27;1.10;;;5.40;99.90;;;;;;4989644;28;20206;-85
2023/04/13 12:21:20;;;;;;;3.43;0.90;;;5.40;99.90;;;;;;4994219;28;20206;-85
2023/04/13 12:24:00;;;;;;;2.03;0.90;;;5.40;99.90;;;;;;4994137;28;20683;-85
2023/04/13 12:26:36;;;;;;;5.63;1.03;;;5.40;99.90;;;;;;4988959;28;20639;-85
2023/04/13 12:29:12;;;;;;;4.60;1.03;;;5.40;99.90;;;;;;5009570;28;20637;-85
2023/04/13 12:31:46;;;;;;;5.90;1.30;;;5.40;99.90;;;;;;4996222;28;20213;-86
2023/04/13 12:34:17;;;;;;;7.63;1.40;;;5.20;99.90;;;;;;5012397;28;20220;-84
2023/04/13 12:36:49;;;;;;;2.87;1.00;;;5.10;99.90;;;;;;4983218;28;20629;-84
2023/04/13 12:39:20;;;;;;;4.27;1.10;;;5.20;99.90;;;;;;4993314;28;20202;-85
2023/04/13 12:41:51;;;;;;;4.30;1.00;;;5.10;99.90;;;;;;4995766;28;20230;-85
2023/04/13 12:44:25;;;;;;;5.30;1.17;;;5.00;99.90;;;;;;4994263;28;20269;-85
2023/04/13 12:47:04;;;;;;;3.23;0.93;;;4.90;99.90;;;;;;4993899;28;20546;-85
2023/04/13 12:49:36;;;;;;;3.10;1.20;;;4.90;99.90;;;;;;4992559;28;20328;-84
2023/04/13 12:52:07;;;;;;;3.17;1.00;;;4.80;99.90;;;;;;5006567;28;20198;-84
2023/04/13 12:54:39;;;;;;;2.30;0.83;;;4.80;99.90;;;;;;5013322;28;20209;-85
2023/04/13 12:57:14;;;;;;;1.53;0.80;;;4.80;99.90;;;;;;4995297;28;20657;-84
2023/04/13 12:59:48;;;;;;;2.13;0.87;;;4.80;99.90;;;;;;4974443;28;20210;-86
2023/04/13 13:02:19;;;;;;;3.27;0.90;;;4.80;99.90;;;;;;5004576;28;20601;-84
2023/04/13 13:04:55;;;;;;;1.50;0.80;;;4.80;99.90;;;;;;5013365;28;20213;-84
2023/04/13 13:07:27;;;;;;;1.50;0.80;;;4.80;99.90;;;;;;5006590;28;20208;-88
2023/04/13 13:09:59;;;;;;;2.80;1.00;;;4.80;99.90;;;;;;4993490;28;20361;-85
2023/04/13 13:12:31;;;;;;;2.07;0.77;;;4.80;99.90;;;;;;4979138;28;20211;-84
2023/04/13 13:15:09;;;;;;;4.80;1.00;;;4.80;99.90;;;;;;4978866;28;20210;-85
2023/04/13 13:17:43;;;;;;;5.13;1.07;;;4.80;99.90;;;;;;4992692;28;20222;-84
2023/04/13 13:20:16;;;;;;;3.20;0.93;;;4.90;99.90;;;;;;4993460;28;20301;-84
2023/04/13 13:22:47;;;;;;;6.53;1.50;;;4.90;99.90;;;;;;4993640;28;20229;-85
2023/04/13 13:25:19;;;;;;;3.40;1.10;;;4.90;99.90;;;;;;4994189;28;20672;-86
2023/04/13 13:27:50;;;;;;;2.87;1.10;;;4.90;99.90;;;;;;4973876;28;20214;-86